Time;durP1;ratioP1;P1;durP2;ratioP2;P2;SDS_P1;SDS_P2;PMS_P1;PMS_P2;Temp;Humidity;BMP_temperature;BMP_pressure;BME280_temperature;BME280_humidity;BME280_pressure;Samples;Min_cycle;Max_cycle;Signal;HPM_P1;HPM_P2
2022/03/30 00:01:58;;;;;;;34.43;17.73;;;;;;;10.75;53.18;96054.75;5095458;28;20570;-39
2022/03/30 00:04:26;;;;;;;24.87;14.57;;;;;;;10.79;53.41;96060.38;5095189;28;20525;-38
2022/03/30 00:06:53;;;;;;;17.27;12.00;;;;;;;10.77;53.37;96059.81;5095496;28;20522;-38
2022/03/30 00:09:22;;;;;;;25.30;14.17;;;;;;;10.75;53.48;96065.38;5095331;28;20469;-38
2022/03/30 00:11:53;;;;;;;28.53;11.40;;;;;;;10.76;53.36;96058.22;5095360;28;20450;-38
2022/03/30 00:14:21;;;;;;;21.50;10.80;;;;;;;10.74;53.28;96061.13;5094996;28;20865;-38
2022/03/30 00:16:49;;;;;;;23.47;12.23;;;;;;;10.69;53.67;96058.44;5095413;28;20454;-39
2022/03/30 00:19:16;;;;;;;26.60;11.77;;;;;;;10.65;53.92;96066.13;5095176;28;20473;-38
2022/03/30 00:21:43;;;;;;;23.37;12.20;;;;;;;10.59;54.21;96067.13;5094738;28;20561;-39
2022/03/30 00:24:11;;;;;;;27.47;13.60;;;;;;;10.58;54.29;96059.41;5094875;28;20443;-39
2022/03/30 00:26:40;;;;;;;19.20;12.40;;;;;;;10.52;54.73;96061.25;5095148;28;20847;-39
2022/03/30 00:29:07;;;;;;;22.63;12.83;;;;;;;10.48;54.69;96065.44;5095049;28;20528;-38
2022/03/30 00:31:34;;;;;;;20.80;10.87;;;;;;;10.45;54.49;96052.66;5095063;28;20446;-38
2022/03/30 00:34:02;;;;;;;18.57;10.97;;;;;;;10.37;54.29;96055.81;5094597;28;20538;-39
2022/03/30 00:36:29;;;;;;;20.20;11.07;;;;;;;10.38;54.77;96046.78;5094619;28;20941;-39
2022/03/30 00:38:56;;;;;;;23.90;11.00;;;;;;;10.34;55.05;96051.78;5094493;28;20439;-39
2022/03/30 00:41:24;;;;;;;15.27;9.83;;;;;;;10.34;55.68;96051.78;5094409;28;20485;-39
2022/03/30 00:43:52;;;;;;;19.47;11.00;;;;;;;10.28;55.05;96039.50;5094374;28;20492;-39
2022/03/30 00:46:20;;;;;;;23.37;11.40;;;;;;;10.34;55.09;96054.44;5094216;28;20439;-39
2022/03/30 00:48:48;;;;;;;19.77;11.40;;;;;;;10.34;54.89;96051.00;5094369;28;20537;-39
2022/03/30 00:51:15;;;;;;;19.87;12.50;;;;;;;10.34;54.69;96051.00;5094301;28;20465;-38
2022/03/30 00:53:42;;;;;;;19.67;11.30;;;;;;;10.34;54.65;96051.00;5094622;28;20451;-39
2022/03/30 00:56:09;;;;;;;23.70;11.87;;;;;;;10.33;54.68;96049.41;5094497;28;20829;-38
2022/03/30 00:58:37;;;;;;;20.80;11.03;;;;;;;10.31;55.22;96043.56;5094192;28;20445;-40
2022/03/30 01:01:07;;;;;;;20.90;10.40;;;;;;;10.31;55.19;96039.03;5093942;28;20523;-39
2022/03/30 01:03:36;;;;;;;24.93;12.40;;;;;;;10.32;54.79;96053.09;5094140;28;20442;-38
2022/03/30 01:06:03;;;;;;;15.63;9.93;;;;;;;10.32;55.10;96051.25;5094127;28;20443;-39
2022/03/30 01:08:31;;;;;;;16.73;8.97;;;;;;;10.30;54.97;96047.25;5094291;28;20446;-39
2022/03/30 01:10:58;;;;;;;15.23;10.53;;;;;;;10.28;55.04;96044.81;5093886;28;20445;-39
2022/03/30 01:13:25;;;;;;;11.30;9.10;;;;;;;10.27;54.78;96045.06;5093943;28;20447;-38
2022/03/30 01:15:53;;;;;;;15.53;10.33;;;;;;;10.27;54.66;96039.75;5093869;28;20474;-39
2022/03/30 01:18:22;;;;;;;25.50;11.87;;;;;;;10.19;54.70;96033.06;5093892;28;20929;-38
2022/03/30 01:20:51;;;;;;;18.03;10.20;;;;;;;10.21;54.92;96041.56;5094000;28;20490;-39
2022/03/30 01:23:19;;;;;;;25.17;11.50;;;;;;;10.20;55.06;96032.81;5094126;28;20504;-38
2022/03/30 01:25:46;;;;;;;20.57;10.23;;;;;;;10.19;55.06;96033.06;5093850;28;20818;-38
2022/03/30 01:28:13;;;;;;;15.70;9.60;;;;;;;10.18;54.89;96032.25;5094093;28;20512;-38
2022/03/30 01:33:26;;;;;;;16.97;10.70;;;;;;;10.16;55.54;96034.38;5094127;28;20414;-38
2022/03/30 01:35:55;;;;;;;17.97;9.93;;;;;;;10.14;55.59;96033.81;5093593;28;20449;-39
2022/03/30 01:38:22;;;;;;;17.43;11.63;;;;;;;10.11;55.77;96029.03;5093725;28;20450;-38
2022/03/30 01:40:49;;;;;;;21.60;9.80;;;;;;;10.05;55.60;96028.16;5093389;28;20974;-39
2022/03/30 01:43:16;;;;;;;18.53;9.80;;;;;;;10.04;55.81;96036.38;5093517;28;20443;-39
2022/03/30 01:45:44;;;;;;;18.47;9.93;;;;;;;10.02;55.59;96027.88;5093850;28;20445;-38
2022/03/30 01:48:11;;;;;;;14.33;8.70;;;;;;;9.98;55.88;96026.75;5093458;28;20475;-38
2022/03/30 01:50:38;;;;;;;15.37;10.10;;;;;;;9.97;55.59;96030.47;5093414;28;20530;-39
2022/03/30 01:53:07;;;;;;;15.30;9.40;;;;;;;9.94;55.91;96034.44;5093351;28;20500;-38
2022/03/30 01:55:35;;;;;;;26.83;10.80;;;;;;;9.97;56.09;96038.44;5093674;28;20519;-39
2022/03/30 01:58:02;;;;;;;19.50;8.67;;;;;;;9.94;55.66;96028.34;5096104;28;20443;-37
2022/03/30 02:00:30;;;;;;;21.60;11.80;;;;;;;9.78;55.98;96012.25;5098403;28;20443;-39
2022/03/30 02:02:57;;;;;;;14.17;10.90;;;;;;;9.91;56.17;96028.81;5097486;28;20490;-39
2022/03/30 02:05:24;;;;;;;17.70;11.10;;;;;;;9.69;55.98;95997.84;5097444;28;20521;-38
2022/03/30 02:07:52;;;;;;;16.13;9.60;;;;;;;9.85;56.10;96027.97;5097745;28;20518;-39
2022/03/30 02:10:21;;;;;;;20.20;11.47;;;;;;;9.83;56.65;96035.38;5097255;28;20470;-38
2022/03/30 02:12:49;;;;;;;18.80;12.17;;;;;;;9.80;56.30;96026.06;5097681;28;20446;-39
2022/03/30 02:15:16;;;;;;;17.73;10.80;;;;;;;9.80;56.30;96035.88;5098107;28;20534;-38
2022/03/30 02:17:43;;;;;;;31.60;12.20;;;;;;;9.79;56.32;96032.44;5097254;28;20447;-39
2022/03/30 02:20:12;;;;;;;19.97;11.67;;;;;;;9.77;56.22;96037.19;5097254;28;20442;-38
2022/03/30 02:22:40;;;;;;;16.03;10.73;;;;;;;9.75;56.51;96026.03;5097115;28;20935;-39
2022/03/30 02:25:09;;;;;;;21.20;10.50;;;;;;;9.70;56.32;96031.28;5097057;28;20966;-39
2022/03/30 02:27:38;;;;;;;25.27;11.07;;;;;;;9.66;56.36;96030.16;5097374;28;20438;-39
2022/03/30 02:30:07;;;;;;;19.00;11.27;;;;;;;9.58;57.24;96033.25;5097215;28;20443;-38
2022/03/30 02:32:35;;;;;;;16.67;11.10;;;;;;;9.62;57.19;96029.84;5096961;28;20496;-39
2022/03/30 02:35:03;;;;;;;20.40;10.57;;;;;;;9.59;57.09;96035.66;5096918;28;20439;-38
2022/03/30 02:37:30;;;;;;;18.37;10.17;;;;;;;9.56;56.70;96030.06;5097225;28;20537;-38
2022/03/30 02:39:58;;;;;;;26.80;14.20;;;;;;;9.54;56.78;96032.94;5097160;28;20438;-39
2022/03/30 02:42:25;;;;;;;21.53;12.93;;;;;;;9.52;57.24;96032.38;5096919;28;20497;-38
2022/03/30 02:44:54;;;;;;;19.23;10.57;;;;;;;9.51;57.19;96033.44;5097343;28;20443;-38
2022/03/30 02:48:17;;;;;;;26.37;13.80;;;;;;;9.51;57.40;96043.25;5097054;28;20542;-38
2022/03/30 02:50:12;;;;;;;20.30;13.13;;;;;;;9.49;57.54;96040.84;5096595;28;20434;-39
2022/03/30 02:52:39;;;;;;;14.60;11.00;;;;;;;9.50;57.18;96042.44;5096879;28;20447;-39
2022/03/30 02:55:07;;;;;;;22.63;11.60;;;;;;;9.51;56.96;96049.34;5096583;28;20447;-39
2022/03/30 02:57:34;;;;;;;18.33;12.67;;;;;;;9.52;56.77;96050.16;5096531;28;20443;-38
2022/03/30 03:00:05;;;;;;;15.50;10.97;;;;;;;9.51;56.61;96054.66;5096737;28;20449;-38
2022/03/30 03:02:32;;;;;;;25.20;11.70;;;;;;;9.51;56.83;96043.25;5096442;28;20485;-39
2022/03/30 03:04:59;;;;;;;19.30;11.77;;;;;;;9.50;57.19;96049.59;5096644;28;20445;-39
2022/03/30 03:07:27;;;;;;;19.97;13.10;;;;;;;9.47;57.19;96047.44;5096588;28;20471;-38
2022/03/30 03:09:54;;;;;;;18.93;11.90;;;;;;;9.47;56.99;96053.53;5096287;28;20493;-38
2022/03/30 03:12:22;;;;;;;21.17;12.87;;;;;;;9.45;56.71;96046.88;5096533;28;20450;-38
2022/03/30 03:14:49;;;;;;;18.70;13.33;;;;;;;9.46;56.47;96056.44;5096229;28;20443;-39
2022/03/30 03:17:18;;;;;;;19.37;12.50;;;;;;;9.48;56.65;96041.09;5096603;28;20443;-39
2022/03/30 03:19:45;;;;;;;24.77;13.57;;;;;;;9.48;56.84;96049.03;5096201;28;20452;-38
2022/03/30 03:22:12;;;;;;;26.37;14.70;;;;;;;9.46;56.65;96046.63;5096342;28;20490;-38
2022/03/30 03:24:39;;;;;;;23.07;14.43;;;;;;;9.45;56.75;96044.25;5095868;28;20470;-39
2022/03/30 03:27:07;;;;;;;29.50;17.10;;;;;;;9.45;56.83;96041.59;5095949;28;20435;-39
2022/03/30 03:29:34;;;;;;;28.07;16.97;;;;;;;9.45;57.05;96038.94;5095846;28;20500;-39
2022/03/30 03:32:01;;;;;;;21.73;14.23;;;;;;;9.42;57.14;96038.38;5095802;28;20797;-38
2022/03/30 03:34:30;;;;;;;22.20;16.50;;;;;;;9.29;57.02;96020.22;5096108;28;20439;-39
2022/03/30 03:36:58;;;;;;;26.77;14.50;;;;;;;9.39;57.07;96035.41;5095682;28;20931;-39
2022/03/30 03:39:25;;;;;;;25.43;15.40;;;;;;;9.32;57.83;96051.50;5095724;28;20449;-39
2022/03/30 03:41:52;;;;;;;20.00;13.80;;;;;;;9.27;57.67;96048.78;5095923;28;20847;-39
2022/03/30 03:44:19;;;;;;;25.40;15.17;;;;;;;9.23;57.75;96045.03;5095624;28;20975;-38
2022/03/30 03:46:47;;;;;;;22.17;13.17;;;;;;;9.21;58.00;96049.78;5095559;28;20439;-39
2022/03/30 03:49:14;;;;;;;30.83;16.43;;;;;;;9.18;58.50;96039.66;5095805;28;20439;-39
2022/03/30 03:51:42;;;;;;;20.67;12.53;;;;;;;9.15;58.65;96040.16;5095477;28;20458;-39
2022/03/30 03:54:10;;;;;;;23.50;14.17;;;;;;;9.13;59.00;96039.59;5095450;28;20497;-38
2022/03/30 03:56:37;;;;;;;31.53;12.70;;;;;;;9.08;58.77;96039.50;5095397;28;20998;-38
2022/03/30 03:59:05;;;;;;;32.87;14.63;;;;;;;9.07;58.68;96043.22;5095254;28;20450;-38
2022/03/30 04:01:33;;;;;;;19.13;12.53;;;;;;;9.02;58.80;96052.69;5095040;28;20486;-38
2022/03/30 04:04:00;;;;;;;21.93;12.57;;;;;;;8.96;59.17;96039.63;5095215;28;20443;-39
2022/03/30 04:06:29;;;;;;;19.50;12.50;;;;;;;8.94;59.47;96039.06;5088624;28;20471;-40
2022/03/30 04:08:58;;;;;;;25.10;14.00;;;;;;;8.93;59.70;96038.28;5074914;28;20478;-39
2022/03/30 04:11:25;;;;;;;24.20;14.57;;;;;;;8.88;59.62;96035.56;5077635;28;20528;-39
2022/03/30 04:13:52;;;;;;;26.23;16.67;;;;;;;8.86;59.75;96047.44;5095014;28;21010;-39
2022/03/30 04:16:20;;;;;;;44.40;21.67;;;;;;;8.82;60.17;96047.13;5095274;28;20876;-39
2022/03/30 04:18:47;;;;;;;29.63;15.77;;;;;;;8.79;60.80;96044.97;5095168;28;20446;-39
2022/03/30 04:21:14;;;;;;;37.30;15.90;;;;;;;8.75;60.76;96043.84;5094336;28;20931;-39
2022/03/30 04:23:41;;;;;;;40.50;16.30;;;;;;;8.79;60.73;96051.03;5094660;28;20443;-39
2022/03/30 04:26:12;;;;;;;26.90;16.33;;;;;;;8.89;60.65;96039.03;5094637;28;20474;-38
2022/03/30 04:28:40;;;;;;;32.17;16.67;;;;;;;8.92;60.49;96052.56;5094599;28;20482;-39
2022/03/30 04:31:08;;;;;;;25.07;14.00;;;;;;;8.99;60.37;96047.09;5094908;28;20482;-39
2022/03/30 04:33:35;;;;;;;34.20;14.40;;;;;;;9.14;60.46;96049.97;5094626;28;20469;-40
2022/03/30 04:36:03;;;;;;;26.63;14.83;;;;;;;9.34;60.10;96060.00;5094878;28;20537;-39
2022/03/30 04:38:30;;;;;;;24.00;13.90;;;;;;;9.59;60.38;96054.22;5094808;28;20451;-39
2022/03/30 04:40:58;;;;;;;23.40;13.50;;;;;;;9.87;59.32;96056.88;5094386;28;20526;-40
2022/03/30 04:43:27;;;;;;;24.17;13.50;;;;;;;10.09;58.29;96060.31;5094372;28;20486;-39
2022/03/30 04:45:55;;;;;;;37.93;17.83;;;;;;;10.32;57.41;96058.41;5094695;28;20447;-39
2022/03/30 04:48:23;;;;;;;56.40;23.40;;;;;;;10.57;56.41;96055.97;5095489;28;20490;-40
2022/03/30 04:50:51;;;;;;;57.57;29.90;;;;;;;10.87;55.67;96057.25;5094358;28;20442;-39
2022/03/30 04:53:19;;;;;;;46.13;23.13;;;;;;;11.15;55.02;96044.66;5094932;28;20538;-39
2022/03/30 04:55:47;;;;;;;40.07;20.93;;;;;;;11.47;54.36;96053.31;5094555;28;20443;-39
2022/03/30 04:58:14;;;;;;;31.00;17.13;;;;;;;11.73;53.61;96057.94;5094185;28;20443;-38
2022/03/30 05:00:43;;;;;;;34.53;17.73;;;;;;;11.88;53.16;96050.03;5094555;28;20450;-40
2022/03/30 05:03:10;;;;;;;33.40;15.50;;;;;;;12.07;52.40;96060.97;5093979;28;21067;-39
2022/03/30 05:05:38;;;;;;;33.27;18.67;;;;;;;12.33;52.21;96053.81;5093919;28;20442;-39
2022/03/30 05:08:06;;;;;;;52.93;21.17;;;;;;;12.67;51.72;96059.41;5094412;28;20443;-39
2022/03/30 05:10:33;;;;;;;64.50;23.03;;;;;;;13.01;50.99;96060.69;5094016;28;20810;-39
2022/03/30 05:13:04;;;;;;;44.83;22.67;;;;;;;13.27;50.60;96059.59;5094330;28;20443;-38
2022/03/30 05:15:31;;;;;;;45.40;24.50;;;;;;;13.70;50.28;96065.34;5093870;28;20439;-40
2022/03/30 05:18:01;;;;;;;57.03;28.03;;;;;;;14.10;49.51;96073.41;5094112;28;20812;-40
2022/03/30 05:20:28;;;;;;;44.23;26.20;;;;;;;14.41;48.10;96065.19;5093697;28;20454;-39
2022/03/30 05:22:55;;;;;;;46.00;25.77;;;;;;;14.79;47.23;96076.16;5093854;28;20493;-40
2022/03/30 05:25:23;;;;;;;34.43;23.60;;;;;;;15.03;47.34;96073.53;5093927;28;20569;-40
2022/03/30 05:27:50;;;;;;;38.30;23.90;;;;;;;15.43;46.76;96077.66;5093724;28;20478;-39
2022/03/30 05:30:17;;;;;;;39.90;21.23;;;;;;;15.78;44.75;96067.66;5093645;28;20446;-40
2022/03/30 05:32:46;;;;;;;28.37;19.80;;;;;;;16.08;43.75;96068.34;5093048;28;20439;-40
2022/03/30 05:35:15;;;;;;;35.27;20.20;;;;;;;16.29;41.97;96060.81;5094043;28;20446;-39
2022/03/30 05:37:47;;;;;;;34.53;18.30;;;;;;;16.60;41.62;96053.09;5093574;28;20447;-40
2022/03/30 05:40:15;;;;;;;45.03;26.23;;;;;;;16.98;40.71;96063.75;5094010;28;20427;-40
2022/03/30 05:42:43;;;;;;;31.53;19.00;;;;;;;17.12;39.76;96064.59;5093448;28;20880;-39
2022/03/30 05:45:10;;;;;;;31.13;19.00;;;;;;;17.33;39.85;96062.31;5093814;28;20538;-40
2022/03/30 05:47:38;;;;;;;43.30;19.40;;;;;;;17.43;39.11;96061.34;5093709;28;20446;-39
2022/03/30 05:50:07;;;;;;;29.73;18.97;;;;;;;17.53;39.45;96068.38;5093773;28;20447;-41
2022/03/30 05:52:36;;;;;;;27.07;18.10;;;;;;;17.65;38.67;96067.91;5093451;28;20442;-39
2022/03/30 05:55:06;;;;;;;21.10;14.93;;;;;;;17.78;38.46;96072.44;5093449;28;20439;-40
2022/03/30 05:57:33;;;;;;;28.27;16.27;;;;;;;17.95;38.08;96074.56;5093759;28;20465;-41
2022/03/30 06:00:00;;;;;;;27.40;17.53;;;;;;;18.17;36.99;96063.06;5093659;28;20454;-40
2022/03/30 06:02:28;;;;;;;24.60;15.23;;;;;;;18.39;37.13;96071.19;5093479;28;20498;-40
2022/03/30 06:04:56;;;;;;;33.47;17.73;;;;;;;18.60;36.55;96062.63;5093308;28;20450;-39
2022/03/30 06:07:23;;;;;;;37.87;18.70;;;;;;;18.73;36.42;96075.19;5093504;28;20475;-40
2022/03/30 06:09:52;;;;;;;27.60;18.23;;;;;;;18.94;36.79;96069.38;5093635;28;20450;-40
2022/03/30 06:12:19;;;;;;;31.63;17.13;;;;;;;19.15;36.33;96070.44;5093571;28;20446;-40
2022/03/30 06:14:47;;;;;;;24.53;16.47;;;;;;;19.28;35.75;96067.97;5094409;28;20446;-37
2022/03/30 06:17:17;;;;;;;34.13;18.63;;;;;;;19.40;35.04;96049.31;5093173;28;20451;-40
2022/03/30 06:19:47;;;;;;;29.03;15.50;;;;;;;19.73;34.32;96059.78;5093175;28;20442;-40
2022/03/30 06:22:14;;;;;;;26.40;16.13;;;;;;;19.96;34.02;96050.50;5093100;28;21054;-40
2022/03/30 06:24:42;;;;;;;23.13;14.10;;;;;;;20.13;33.84;96055.09;5093255;28;20446;-40
2022/03/30 06:27:12;;;;;;;22.30;14.17;;;;;;;20.27;34.02;96049.56;5093218;28;20423;-40
2022/03/30 06:29:41;;;;;;;23.63;14.10;;;;;;;20.35;33.70;96059.56;5093142;28;20449;-39
2022/03/30 06:32:09;;;;;;;41.63;14.90;;;;;;;20.52;33.87;96047.16;5093070;28;20533;-39
2022/03/30 06:34:38;;;;;;;23.90;13.20;;;;;;;20.63;33.86;96051.19;5093185;28;20489;-40
2022/03/30 06:37:06;;;;;;;24.23;15.63;;;;;;;20.73;33.52;96050.03;5093051;28;20446;-40
2022/03/30 06:39:33;;;;;;;22.40;14.20;;;;;;;20.81;33.11;96055.41;5093177;28;20447;-40
2022/03/30 06:42:01;;;;;;;23.67;13.60;;;;;;;20.82;32.99;96057.03;5093734;28;20490;-40
2022/03/30 06:44:31;;;;;;;22.77;15.57;;;;;;;20.88;32.50;96063.03;5096445;28;20447;-40
2022/03/30 06:46:59;;;;;;;23.40;16.33;;;;;;;21.14;33.07;96065.66;5097444;28;20443;-39
2022/03/30 06:49:26;;;;;;;21.63;13.60;;;;;;;21.35;31.85;96062.28;5096796;28;20446;-40
2022/03/30 06:51:53;;;;;;;25.73;16.10;;;;;;;21.36;32.73;96066.53;5096634;28;20445;-40
2022/03/30 06:54:20;;;;;;;23.10;14.27;;;;;;;21.41;31.95;96058.28;5096967;28;20450;-40
2022/03/30 06:56:48;;;;;;;21.40;13.17;;;;;;;21.41;32.23;96069.09;5096639;28;20956;-39
2022/03/30 06:59:17;;;;;;;21.57;12.90;;;;;;;21.58;31.38;96073.66;5096557;28;20450;-40
2022/03/30 07:01:46;;;;;;;28.17;14.47;;;;;;;21.69;31.54;96074.88;5096807;28;20492;-39
2022/03/30 07:04:13;;;;;;;21.57;13.83;;;;;;;21.78;31.13;96061.31;5096218;28;20934;-38
2022/03/30 07:10:14;;;;;;;21.50;14.77;;;;;;;22.07;30.73;96066.72;5096516;28;20446;-39
2022/03/30 07:12:13;;;;;;;21.53;13.60;;;;;;;22.13;29.54;96055.69;5096302;28;20505;-39
2022/03/30 07:14:40;;;;;;;26.70;15.00;;;;;;;21.90;30.29;96064.13;5096371;28;20451;-40
2022/03/30 07:17:09;;;;;;;22.13;16.27;;;;;;;21.91;30.97;96059.50;5096131;28;20491;-40
2022/03/30 07:19:38;;;;;;;23.60;14.57;;;;;;;22.06;29.44;96062.41;5096088;28;20487;-40
2022/03/30 07:22:05;;;;;;;24.03;14.93;;;;;;;22.11;30.25;96060.66;5095178;28;20482;-40
2022/03/30 07:24:32;;;;;;;25.73;16.60;;;;;;;22.36;29.14;96061.63;5095472;28;20809;-41
2022/03/30 07:27:00;;;;;;;26.20;15.27;;;;;;;22.45;30.14;96065.81;5095934;28;20420;-40
2022/03/30 07:29:27;;;;;;;26.63;15.40;;;;;;;22.70;30.16;96069.44;5096100;28;20488;-40
2022/03/30 07:31:54;;;;;;;24.67;14.80;;;;;;;22.89;29.18;96068.94;5095829;28;20553;-40
2022/03/30 07:34:23;;;;;;;19.43;14.53;;;;;;;23.00;28.67;96071.25;5095792;28;20814;-40
2022/03/30 07:36:50;;;;;;;15.77;13.93;;;;;;;23.05;29.06;96079.19;5095763;28;20447;-40
2022/03/30 07:39:18;;;;;;;24.60;15.93;;;;;;;23.05;29.06;96071.06;5095771;28;20435;-39
2022/03/30 07:41:45;;;;;;;21.33;14.27;;;;;;;23.13;29.42;96075.59;5095662;28;20445;-40
2022/03/30 07:44:13;;;;;;;23.20;14.50;;;;;;;23.32;29.09;96080.50;5095604;28;20497;-39
2022/03/30 07:46:40;;;;;;;25.40;14.20;;;;;;;23.41;28.55;96074.97;5095636;28;20443;-39
2022/03/30 07:49:08;;;;;;;27.30;16.03;;;;;;;23.46;28.00;96077.44;5095587;28;20443;-40
2022/03/30 07:51:37;;;;;;;25.83;16.77;;;;;;;23.31;27.89;96076.97;5095701;28;20451;-38
2022/03/30 07:54:04;;;;;;;18.57;13.20;;;;;;;23.52;27.67;96071.47;5095588;28;20450;-40
2022/03/30 07:56:32;;;;;;;21.73;13.80;;;;;;;23.54;27.25;96071.16;5095274;28;20474;-39
2022/03/30 07:59:00;;;;;;;22.17;15.30;;;;;;;23.56;27.27;96070.81;5095727;28;20447;-39
2022/03/30 08:01:27;;;;;;;28.23;14.03;;;;;;;23.18;27.37;96040.19;5095276;28;20446;-40
2022/03/30 08:03:56;;;;;;;20.57;15.07;;;;;;;23.42;27.69;96065.72;5095520;28;20573;-40
2022/03/30 08:06:24;;;;;;;32.60;16.83;;;;;;;23.65;27.81;96053.31;5095211;28;20450;-40
2022/03/30 08:08:53;;;;;;;28.53;14.80;;;;;;;23.94;26.99;96065.09;5095132;28;20450;-39
2022/03/30 08:11:20;;;;;;;23.73;15.10;;;;;;;23.79;26.67;96058.44;5095099;28;20435;-39
2022/03/30 08:13:47;;;;;;;28.37;16.27;;;;;;;24.04;26.38;96069.25;5095031;28;20475;-40
2022/03/30 08:16:14;;;;;;;25.20;15.03;;;;;;;24.09;26.14;96061.69;5095079;28;20446;-39
2022/03/30 08:18:42;;;;;;;19.83;13.97;;;;;;;23.98;26.38;96060.53;5095238;28;20505;-40
2022/03/30 08:23:55;;;;;;;24.97;14.10;;;;;;;24.19;26.43;96051.50;5095257;28;20473;-39
2022/03/30 08:26:23;;;;;;;23.10;14.20;;;;;;;24.21;26.88;96049.22;5094806;28;20499;-40
2022/03/30 08:28:50;;;;;;;26.43;16.37;;;;;;;24.21;26.88;96046.50;5094977;28;20479;-39
2022/03/30 08:31:18;;;;;;;27.63;16.23;;;;;;;24.14;26.75;96047.09;5094650;28;20803;-38
2022/03/30 08:33:45;;;;;;;22.07;16.50;;;;;;;24.04;25.87;96047.56;5094743;28;20439;-37
2022/03/30 08:36:12;;;;;;;21.17;16.30;;;;;;;24.02;25.59;96036.25;5094639;28;20447;-38
2022/03/30 08:38:39;;;;;;;27.33;16.90;;;;;;;24.24;25.55;96034.97;5094620;28;20926;-40
2022/03/30 08:41:09;;;;;;;17.27;13.40;;;;;;;24.59;22.79;96039.88;5094949;28;20443;-41
2022/03/30 08:43:36;;;;;;;16.50;14.10;;;;;;;24.81;22.57;96042.03;5094784;28;20561;-40
2022/03/30 08:46:04;;;;;;;31.37;14.67;;;;;;;24.78;24.21;96031.88;5094700;28;20529;-39
2022/03/30 08:48:31;;;;;;;17.93;14.47;;;;;;;24.53;22.06;96026.56;5094441;28;20508;-39
2022/03/30 08:51:00;;;;;;;18.87;13.70;;;;;;;24.43;21.14;96027.00;5094334;28;20529;-40
2022/03/30 08:53:28;;;;;;;36.13;17.20;;;;;;;24.03;21.50;96019.66;5094510;28;20443;-40
2022/03/30 08:55:56;;;;;;;24.53;14.13;;;;;;;24.02;22.02;96007.22;5094607;28;20492;-40
2022/03/30 08:58:24;;;;;;;20.77;14.50;;;;;;;23.74;21.05;96011.75;5094539;28;20513;-40
2022/03/30 09:00:53;;;;;;;21.97;14.13;;;;;;;23.99;20.93;96012.56;5094238;28;20508;-39
2022/03/30 09:03:20;;;;;;;23.80;14.97;;;;;;;24.01;22.10;96000.25;5094077;28;20986;-37
2022/03/30 09:05:47;;;;;;;17.77;13.33;;;;;;;23.79;21.58;95992.59;5094296;28;20439;-37
2022/03/30 09:08:17;;;;;;;20.10;13.37;;;;;;;23.67;21.91;95993.38;5094076;28;20446;-37
2022/03/30 09:10:46;;;;;;;17.90;13.10;;;;;;;23.58;21.46;95988.06;5094001;28;20439;-37
2022/03/30 09:13:17;;;;;;;17.80;12.50;;;;;;;23.62;21.35;95988.97;5094237;28;20530;-37
2022/03/30 09:15:48;;;;;;;30.07;16.77;;;;;;;23.88;21.91;95982.44;5094197;28;20436;-37
2022/03/30 09:18:15;;;;;;;18.23;13.20;;;;;;;24.00;21.41;95982.38;5093913;28;20440;-37
2022/03/30 09:20:46;;;;;;;22.03;13.93;;;;;;;24.34;20.82;95991.09;5094076;28;20493;-38
2022/03/30 09:23:15;;;;;;;17.97;13.37;;;;;;;24.48;22.14;95942.72;5094062;28;20470;-37
2022/03/30 09:25:45;;;;;;;22.23;13.60;;;;;;;24.79;20.85;95967.53;5093260;28;20474;-37
2022/03/30 09:28:13;;;;;;;21.00;14.63;;;;;;;24.49;20.60;95917.16;5094104;28;20475;-37
2022/03/30 09:30:40;;;;;;;24.30;14.67;;;;;;;24.82;20.88;95956.75;5093718;28;20434;-36
2022/03/30 09:33:10;;;;;;;29.87;17.47;;;;;;;24.73;21.33;95956.13;5093669;28;20451;-37
2022/03/30 09:35:40;;;;;;;21.03;15.10;;;;;;;24.39;22.36;95950.16;5093932;28;20447;-35
2022/03/30 09:38:09;;;;;;;23.23;16.13;;;;;;;24.52;22.28;95943.59;5093683;28;20442;-37
2022/03/30 09:40:40;;;;;;;24.93;14.30;;;;;;;24.82;22.28;95945.09;5093583;28;20918;-39
2022/03/30 09:43:15;;;;;;;19.37;14.50;;;;;;;25.17;21.73;95956.09;5093757;28;20518;-40
2022/03/30 09:45:42;;;;;;;20.50;12.80;;;;;;;25.25;21.80;95940.75;5093560;28;20430;-40
2022/03/30 09:48:16;;;;;;;22.93;13.70;;;;;;;25.61;21.28;95953.25;5093520;28;20446;-40
2022/03/30 09:50:45;;;;;;;21.77;14.57;;;;;;;25.69;20.97;95938.69;5094688;28;20427;-39
2022/03/30 09:53:13;;;;;;;23.33;14.40;;;;;;;25.71;20.97;95946.47;5093427;28;20518;-39
2022/03/30 09:56:00;;;;;;;23.03;12.33;;;;;;;25.60;20.14;95946.25;5093880;28;20946;-39
2022/03/30 09:58:29;;;;;;;20.60;12.97;;;;;;;25.55;21.21;95949.22;5093728;28;20457;-39
2022/03/30 10:01:09;;;;;;;19.70;11.83;;;;;;;25.46;20.36;95935.84;5093365;28;20439;-39
2022/03/30 10:03:46;;;;;;;15.97;12.30;;;;;;;25.31;21.08;95945.56;5093726;28;20900;-40
2022/03/30 10:06:16;;;;;;;17.73;11.47;;;;;;;25.11;20.46;95946.63;5093629;28;20423;-40
2022/03/30 10:08:44;;;;;;;18.60;11.80;;;;;;;25.00;19.93;95945.56;5093800;28;20451;-39
2022/03/30 10:11:15;;;;;;;17.40;12.13;;;;;;;24.89;20.53;95935.22;5094060;28;20443;-39
2022/03/30 10:13:43;;;;;;;13.23;11.20;;;;;;;24.74;20.38;95930.59;5093683;28;20519;-40
2022/03/30 10:16:11;;;;;;;18.13;12.13;;;;;;;24.61;20.40;95918.19;5093717;28;20442;-40
2022/03/30 10:18:38;;;;;;;21.03;11.20;;;;;;;24.61;20.45;95915.50;5095213;28;20883;-39
2022/03/30 10:21:19;;;;;;;16.37;11.93;;;;;;;24.88;20.42;95933.63;5097276;28;20442;-36
2022/03/30 10:24:11;;;;;;;24.50;14.27;;;;;;;25.01;19.95;95925.41;5097145;28;20470;-39
2022/03/30 10:26:49;;;;;;;29.23;15.67;;;;;;;25.00;21.51;95918.44;5096851;28;20903;-39
2022/03/30 10:29:18;;;;;;;21.33;15.33;;;;;;;24.82;21.57;95913.31;5097164;28;20423;-39
2022/03/30 10:32:12;;;;;;;25.80;14.70;;;;;;;24.85;22.12;95920.78;5097113;28;20439;-39
2022/03/30 10:34:50;;;;;;;18.20;12.17;;;;;;;24.80;20.65;95926.47;5097055;28;20859;-40
2022/03/30 10:37:27;;;;;;;26.53;12.77;;;;;;;24.67;21.36;95890.50;5097032;28;20472;-39
2022/03/30 10:39:56;;;;;;;15.63;12.33;;;;;;;24.98;22.22;95916.06;5097189;28;20431;-36
2022/03/30 10:42:24;;;;;;;15.77;13.00;;;;;;;25.20;22.47;95901.09;5096876;28;20447;-39
2022/03/30 10:44:57;;;;;;;19.30;10.67;;;;;;;25.17;22.41;95904.50;5096717;28;20792;-37
2022/03/30 10:47:27;;;;;;;15.53;12.43;;;;;;;25.17;22.42;95912.63;5097296;28;20423;-37
2022/03/30 10:49:56;;;;;;;19.30;11.40;;;;;;;24.99;22.05;95905.97;5097130;28;20796;-37
2022/03/30 10:52:32;;;;;;;13.73;11.80;;;;;;;25.00;23.45;95907.56;5096637;28;20439;-37
2022/03/30 10:55:30;;;;;;;17.33;11.00;;;;;;;24.73;22.64;95891.78;5096615;28;20433;-37
2022/03/30 10:58:01;;;;;;;17.63;12.33;;;;;;;24.56;23.21;95872.34;5096349;28;20443;-35
2022/03/30 11:00:31;;;;;;;18.10;10.97;;;;;;;24.80;24.08;95876.81;5096844;28;20867;-36
2022/03/30 11:03:10;;;;;;;19.43;11.00;;;;;;;24.82;24.03;95896.25;5096561;28;20434;-38
2022/03/30 11:05:38;;;;;;;17.20;11.07;;;;;;;24.74;23.06;95887.16;5097195;28;20443;-37
2022/03/30 11:08:48;;;;;;;18.60;12.17;;;;;;;24.75;23.44;95875.16;5096405;28;20483;-39
2022/03/30 11:11:23;;;;;;;25.43;13.13;;;;;;;24.78;22.52;95862.81;5096236;28;20930;-40
2022/03/30 11:13:51;;;;;;;13.53;10.67;;;;;;;24.80;23.47;95861.34;5096746;28;20569;-40
2022/03/30 11:16:18;;;;;;;15.33;11.07;;;;;;;24.67;23.62;95862.53;5096566;28;20474;-38
2022/03/30 11:19:02;;;;;;;20.87;12.00;;;;;;;24.76;23.93;95863.19;5096223;28;20446;-40
2022/03/30 11:21:31;;;;;;;18.57;11.43;;;;;;;24.83;24.11;95859.84;5096407;28;20775;-39
2022/03/30 11:24:05;;;;;;;22.70;12.30;;;;;;;24.70;23.31;95859.16;5095947;28;20530;-40
2022/03/30 11:27:18;;;;;;;19.50;11.80;;;;;;;24.42;22.54;95857.25;5095936;28;20838;-40
2022/03/30 11:29:48;;;;;;;16.93;11.73;;;;;;;24.31;22.34;95851.56;5072309;28;20444;-40
2022/03/30 11:32:41;;;;;;;20.73;13.40;;;;;;;24.09;22.59;95844.78;5093760;28;20470;-40
2022/03/30 11:35:11;;;;;;;20.07;11.73;;;;;;;23.89;23.63;95837.66;5095867;28;20487;-37
2022/03/30 11:37:41;;;;;;;16.27;11.90;;;;;;;23.90;24.05;95841.94;5096964;28;20446;-37